Time;durP1;ratioP1;P1;durP2;ratioP2;P2;SDS_P1;SDS_P2;PMS_P1;PMS_P2;Temp;Humidity;BMP_temperature;BMP_pressure;BME280_temperature;BME280_humidity;BME280_pressure;Samples;Min_cycle;Max_cycle;Signal;HPM_P1;HPM_P2
2021/08/04 00:00:21;;;;;;;2.50;1.08;;;15.90;78.80;;;;;;5070824;28;20086;-78
2021/08/04 00:02:48;;;;;;;2.10;1.08;;;15.90;78.80;;;;;;5094136;28;20046;-77
2021/08/04 00:05:16;;;;;;;3.63;1.10;;;15.90;78.80;;;;;;5094798;27;20430;-77
2021/08/04 00:07:43;;;;;;;2.00;0.88;;;15.90;78.90;;;;;;5093281;28;20047;-77
2021/08/04 00:10:11;;;;;;;2.42;0.80;;;15.80;79.00;;;;;;5094278;28;20391;-77
2021/08/04 00:12:38;;;;;;;2.28;0.80;;;15.80;79.10;;;;;;5106435;27;20072;-78
2021/08/04 00:15:10;;;;;;;1.42;0.50;;;15.70;79.20;;;;;;5106103;28;20509;-77
2021/08/04 00:17:37;;;;;;;2.53;0.80;;;15.70;79.40;;;;;;5106646;28;20533;-77
2021/08/04 00:20:05;;;;;;;2.55;1.08;;;15.60;79.60;;;;;;5086057;28;20114;-77
2021/08/04 00:22:33;;;;;;;1.98;1.00;;;15.60;79.70;;;;;;5090239;28;20043;-77
2021/08/04 00:25:00;;;;;;;2.90;0.90;;;15.50;79.90;;;;;;5106460;28;20040;-77
2021/08/04 00:27:27;;;;;;;2.38;0.98;;;15.50;80.00;;;;;;5107805;28;20119;-78
2021/08/04 00:29:55;;;;;;;2.22;0.95;;;15.40;80.10;;;;;;5109696;27;20039;-77
2021/08/04 00:32:23;;;;;;;2.63;0.90;;;15.30;80.20;;;;;;5121800;27;20031;-77
2021/08/04 00:34:51;;;;;;;2.20;0.82;;;15.30;80.30;;;;;;5109136;28;20955;-77
2021/08/04 00:37:18;;;;;;;2.15;0.85;;;15.30;80.40;;;;;;5108156;27;20100;-77
2021/08/04 00:39:46;;;;;;;1.63;0.60;;;15.20;80.60;;;;;;5074317;28;20528;-77
2021/08/04 00:42:17;;;;;;;1.52;0.60;;;15.20;80.60;;;;;;5072826;28;20039;-78
2021/08/04 00:44:45;;;;;;;2.37;0.83;;;15.20;80.70;;;;;;5087712;28;20060;-77
2021/08/04 00:47:13;;;;;;;2.40;0.93;;;15.10;80.80;;;;;;5089210;28;20039;-77
2021/08/04 00:49:41;;;;;;;2.22;0.80;;;15.10;80.90;;;;;;5088737;28;20040;-77
2021/08/04 00:52:09;;;;;;;1.52;0.77;;;15.00;80.90;;;;;;5091727;28;20510;-77
2021/08/04 00:54:36;;;;;;;1.77;0.63;;;15.00;81.10;;;;;;5109287;28;20040;-77
2021/08/04 00:57:04;;;;;;;5.38;1.58;;;15.00;81.10;;;;;;5071930;28;20036;-77
2021/08/04 00:59:31;;;;;;;2.22;0.95;;;15.00;81.10;;;;;;5089972;28;20139;-77
2021/08/04 01:02:08;;;;;;;2.88;0.85;;;15.00;81.10;;;;;;5090422;28;20833;-77
2021/08/04 01:04:45;;;;;;;3.03;1.10;;;15.10;81.10;;;;;;5090114;28;20043;-77
2021/08/04 01:07:15;;;;;;;1.92;0.95;;;15.10;80.90;;;;;;5102635;28;20047;-77
2021/08/04 01:09:54;;;;;;;2.28;0.70;;;15.10;81.00;;;;;;5107767;28;20069;-77
2021/08/04 01:12:25;;;;;;;1.67;0.77;;;15.10;81.00;;;;;;5102605;27;21000;-77
2021/08/04 01:14:59;;;;;;;2.13;0.82;;;15.00;81.00;;;;;;5083942;28;20381;-77
2021/08/04 01:17:26;;;;;;;2.50;0.90;;;15.00;81.10;;;;;;5091304;28;20047;-77
2021/08/04 01:20:04;;;;;;;2.67;1.10;;;15.00;81.20;;;;;;5076621;27;20055;-78
2021/08/04 01:22:56;;;;;;;2.85;1.20;;;15.00;81.30;;;;;;5103138;28;20162;-77
2021/08/04 01:25:30;;;;;;;2.35;0.60;;;15.00;81.40;;;;;;5100548;28;20549;-77
2021/08/04 01:28:18;;;;;;;1.75;0.80;;;15.00;81.50;;;;;;5105859;28;20035;-77
2021/08/04 01:30:50;;;;;;;1.48;0.70;;;15.00;81.50;;;;;;5095373;27;20074;-77
2021/08/04 01:33:18;;;;;;;2.20;1.00;;;14.90;81.50;;;;;;5106735;28;20036;-77
2021/08/04 01:35:45;;;;;;;2.38;0.90;;;14.90;81.60;;;;;;5105290;27;20509;-77
2021/08/04 01:38:16;;;;;;;1.88;0.80;;;14.90;81.70;;;;;;5105103;28;20488;-77
2021/08/04 01:40:46;;;;;;;1.67;0.70;;;14.90;81.70;;;;;;5082230;28;20406;-77
2021/08/04 01:43:15;;;;;;;2.17;0.70;;;14.90;81.80;;;;;;5117698;27;20126;-77
2021/08/04 01:45:42;;;;;;;1.88;0.80;;;14.90;81.80;;;;;;5110097;27;20135;-77
2021/08/04 01:48:10;;;;;;;2.17;0.88;;;14.90;82.00;;;;;;5066720;28;20116;-77
2021/08/04 01:50:38;;;;;;;2.45;1.27;;;14.80;81.90;;;;;;5070348;28;20079;-77
2021/08/04 01:53:06;;;;;;;1.92;0.93;;;14.80;82.00;;;;;;5084894;28;20044;-77
2021/08/04 01:55:33;;;;;;;1.55;0.63;;;14.80;82.00;;;;;;5101652;28;20131;-77
2021/08/04 01:58:01;;;;;;;3.40;0.75;;;14.80;82.10;;;;;;5090266;28;20068;-77
2021/08/04 02:00:28;;;;;;;2.13;0.70;;;14.80;82.20;;;;;;5070066;28;20407;-77
2021/08/04 02:02:56;;;;;;;1.77;0.73;;;14.70;82.20;;;;;;5101104;27;20411;-77
2021/08/04 02:05:23;;;;;;;1.88;0.75;;;14.70;82.30;;;;;;5102371;27;20063;-77
2021/08/04 02:08:09;;;;;;;1.83;0.60;;;14.70;82.40;;;;;;5108113;28;20417;-77
2021/08/04 02:10:58;;;;;;;1.20;0.70;;;14.60;82.40;;;;;;5102959;28;20043;-77
2021/08/04 02:13:38;;;;;;;2.00;0.80;;;14.60;82.50;;;;;;5100385;28;20438;-77
2021/08/04 02:16:26;;;;;;;2.13;0.65;;;14.60;82.60;;;;;;5111829;27;20459;-77
2021/08/04 02:19:22;;;;;;;1.73;0.73;;;14.50;82.60;;;;;;5104853;28;20044;-77
2021/08/04 02:22:14;;;;;;;1.25;0.63;;;14.60;82.70;;;;;;5107079;28;20389;-77
2021/08/04 02:24:53;;;;;;;2.70;0.85;;;14.50;82.70;;;;;;5104730;27;20044;-77
2021/08/04 02:27:20;;;;;;;3.95;0.80;;;14.50;82.70;;;;;;5119302;27;20035;-78
2021/08/04 02:29:49;;;;;;;2.20;0.75;;;14.50;82.80;;;;;;5080637;28;20083;-77
2021/08/04 02:32:18;;;;;;;1.98;0.70;;;14.50;82.90;;;;;;5106234;28;20043;-76
2021/08/04 02:34:45;;;;;;;2.13;0.73;;;14.40;83.50;;;;;;5116300;28;20031;-82
2021/08/04 02:37:12;;;;;;;1.10;0.50;;;14.40;82.90;;;;;;5099461;28;20495;-82
2021/08/04 02:39:39;;;;;;;1.40;0.82;;;14.40;83.00;;;;;;5076709;28;20039;-83
2021/08/04 02:42:06;;;;;;;1.95;0.80;;;14.40;83.10;;;;;;5074865;28;20036;-82
2021/08/04 02:44:36;;;;;;;1.50;0.60;;;14.40;83.10;;;;;;5072006;28;20521;-83
2021/08/04 02:47:03;;;;;;;1.50;0.73;;;14.40;83.20;;;;;;5105147;28;20143;-85
2021/08/04 02:49:31;;;;;;;1.77;0.90;;;14.30;83.20;;;;;;5074371;28;20050;-85
2021/08/04 02:51:58;;;;;;;1.98;0.80;;;14.40;83.30;;;;;;5103874;28;20040;-77
2021/08/04 02:54:25;;;;;;;1.35;0.57;;;14.30;83.30;;;;;;5107036;28;20472;-76
2021/08/04 02:56:52;;;;;;;1.60;0.68;;;14.30;83.30;;;;;;5120104;27;20447;-77
2021/08/04 02:59:19;;;;;;;1.65;0.60;;;14.30;83.30;;;;;;5073916;28;20044;-76
2021/08/04 03:01:46;;;;;;;1.77;0.70;;;14.30;83.40;;;;;;5104475;28;20032;-76
2021/08/04 03:04:13;;;;;;;2.95;0.82;;;14.30;83.40;;;;;;5089298;28;20040;-77
2021/08/04 03:06:40;;;;;;;1.30;0.60;;;14.30;83.40;;;;;;5103652;28;20125;-76
2021/08/04 03:09:08;;;;;;;1.60;0.52;;;14.20;83.40;;;;;;5072595;28;20055;-77
2021/08/04 03:11:35;;;;;;;1.48;0.52;;;14.20;83.50;;;;;;5091039;28;20035;-77
2021/08/04 03:14:02;;;;;;;1.77;0.70;;;14.20;83.50;;;;;;5104209;28;20040;-76
2021/08/04 03:16:29;;;;;;;1.58;0.70;;;14.20;83.60;;;;;;5076867;28;20142;-77
2021/08/04 03:18:56;;;;;;;2.58;0.65;;;14.20;83.60;;;;;;5108768;28;20040;-76
2021/08/04 03:21:23;;;;;;;1.98;0.80;;;14.20;83.70;;;;;;5086046;28;20115;-76
2021/08/04 03:23:50;;;;;;;2.10;1.05;;;14.10;83.80;;;;;;5103295;28;20071;-76
2021/08/04 03:26:17;;;;;;;2.50;0.77;;;14.10;83.70;;;;;;5094076;28;20040;-76
2021/08/04 03:28:44;;;;;;;1.70;0.65;;;14.10;83.80;;;;;;5108904;28;20039;-76
2021/08/04 03:31:11;;;;;;;1.55;0.70;;;14.10;83.90;;;;;;5106265;27;20048;-77
2021/08/04 03:33:38;;;;;;;1.80;0.68;;;14.10;84.00;;;;;;5105309;28;20107;-76
2021/08/04 03:36:05;;;;;;;2.10;0.80;;;14.00;84.00;;;;;;5106160;27;20073;-77
2021/08/04 03:38:32;;;;;;;2.22;0.93;;;14.00;84.00;;;;;;5110556;27;20044;-77
2021/08/04 03:40:59;;;;;;;2.88;0.80;;;14.10;84.10;;;;;;5090441;28;20410;-77
2021/08/04 03:43:26;;;;;;;2.08;0.90;;;14.00;84.10;;;;;;5106524;28;20507;-78
2021/08/04 03:45:53;;;;;;;1.45;0.80;;;14.00;84.10;;;;;;5107767;27;20040;-77
2021/08/04 03:48:20;;;;;;;1.15;0.40;;;14.00;84.10;;;;;;5115341;28;20065;-77
2021/08/04 03:50:47;;;;;;;2.88;0.68;;;14.00;84.10;;;;;;5111193;28;20032;-77
2021/08/04 03:53:14;;;;;;;1.65;0.55;;;14.00;84.10;;;;;;5085346;28;20465;-77
2021/08/04 03:55:41;;;;;;;1.40;0.60;;;14.00;84.20;;;;;;5109649;28;20032;-78
2021/08/04 03:58:08;;;;;;;1.35;0.68;;;14.00;84.20;;;;;;5101013;27;20510;-77
2021/08/04 04:00:35;;;;;;;1.50;0.70;;;14.00;84.30;;;;;;5111642;28;20139;-77
2021/08/04 04:03:02;;;;;;;3.00;0.82;;;14.00;84.30;;;;;;5084876;27;20035;-77
2021/08/04 04:05:30;;;;;;;1.23;0.60;;;14.00;84.30;;;;;;5120061;27;20043;-77
2021/08/04 04:07:57;;;;;;;1.45;0.68;;;13.90;84.30;;;;;;5055736;28;20127;-77
2021/08/04 04:10:24;;;;;;;1.42;0.50;;;13.90;84.30;;;;;;5058811;28;20064;-77
2021/08/04 04:12:50;;;;;;;2.53;0.52;;;13.90;85.00;;;;;;5055713;28;20067;-77
2021/08/04 04:15:17;;;;;;;1.60;0.65;;;13.90;84.50;;;;;;5058583;28;20059;-77
2021/08/04 04:17:44;;;;;;;1.42;0.63;;;13.80;84.50;;;;;;5057088;28;20555;-77
2021/08/04 04:20:12;;;;;;;1.90;0.73;;;13.80;84.60;;;;;;5073025;28;20090;-77
2021/08/04 04:22:46;;;;;;;1.65;0.70;;;13.90;84.60;;;;;;5067805;28;20070;-77
2021/08/04 04:25:15;;;;;;;1.38;0.70;;;13.80;84.50;;;;;;5072063;28;20041;-77
2021/08/04 04:27:44;;;;;;;2.67;0.85;;;13.80;84.60;;;;;;5074046;28;20095;-77
2021/08/04 04:30:12;;;;;;;1.05;0.57;;;13.80;84.60;;;;;;5084246;28;20055;-77
2021/08/04 04:32:39;;;;;;;1.70;0.70;;;13.80;84.60;;;;;;5075032;28;20079;-77
2021/08/04 04:35:07;;;;;;;1.50;0.70;;;13.80;84.60;;;;;;5070706;28;20040;-77
2021/08/04 04:37:34;;;;;;;1.83;0.75;;;13.80;84.60;;;;;;5074060;28;20068;-77
2021/08/04 04:40:02;;;;;;;1.73;0.52;;;13.80;84.60;;;;;;5087695;28;20101;-77
2021/08/04 04:42:29;;;;;;;1.50;0.80;;;13.80;84.60;;;;;;5074922;28;20029;-77
2021/08/04 04:44:56;;;;;;;2.13;0.70;;;13.80;84.50;;;;;;5057378;28;20122;-77
2021/08/04 04:47:23;;;;;;;1.90;0.70;;;13.80;84.50;;;;;;5073792;28;20068;-77
2021/08/04 04:49:49;;;;;;;1.85;0.90;;;13.80;84.70;;;;;;5057325;28;20503;-78
2021/08/04 04:52:17;;;;;;;1.83;0.80;;;13.90;84.50;;;;;;5069783;28;20082;-77
2021/08/04 04:54:44;;;;;;;1.77;1.10;;;13.90;84.50;;;;;;5073206;28;20074;-77
2021/08/04 04:57:11;;;;;;;1.45;0.77;;;13.90;84.50;;;;;;5072700;28;20055;-77
2021/08/04 04:59:38;;;;;;;0.88;0.43;;;13.90;84.50;;;;;;5073119;28;20041;-77
2021/08/04 05:02:05;;;;;;;2.00;0.70;;;14.00;84.60;;;;;;5072940;28;20037;-77
2021/08/04 05:04:32;;;;;;;3.15;0.50;;;14.00;84.60;;;;;;5056547;28;20037;-77
2021/08/04 05:06:59;;;;;;;1.55;0.75;;;13.90;84.50;;;;;;5076950;28;20667;-77
2021/08/04 05:09:26;;;;;;;1.42;0.50;;;14.00;84.60;;;;;;5093049;28;20519;-77
2021/08/04 05:11:53;;;;;;;1.50;0.80;;;14.00;84.60;;;;;;5086824;28;20101;-78
2021/08/04 05:14:19;;;;;;;1.33;0.60;;;14.00;84.60;;;;;;5096512;28;20070;-77
2021/08/04 05:16:47;;;;;;;2.10;0.70;;;14.10;84.60;;;;;;5095719;28;20073;-77
2021/08/04 05:19:14;;;;;;;1.20;0.50;;;14.10;84.50;;;;;;5111727;28;20040;-77
2021/08/04 05:21:41;;;;;;;1.15;0.50;;;14.10;84.50;;;;;;5105413;28;20143;-77
2021/08/04 05:24:08;;;;;;;1.15;0.50;;;14.10;84.40;;;;;;5112647;28;20051;-77
2021/08/04 05:26:35;;;;;;;1.77;0.80;;;14.20;84.40;;;;;;5099003;28;20044;-77
2021/08/04 05:29:02;;;;;;;1.25;0.50;;;14.20;84.40;;;;;;5092843;28;20147;-77
2021/08/04 05:31:30;;;;;;;1.83;0.60;;;14.30;84.30;;;;;;5093459;28;20051;-77
2021/08/04 05:33:57;;;;;;;1.80;0.80;;;14.30;84.30;;;;;;5096586;28;20376;-77
2021/08/04 05:36:23;;;;;;;2.00;0.80;;;14.40;84.20;;;;;;5100471;28;20120;-77
2021/08/04 05:38:51;;;;;;;1.95;0.80;;;14.50;84.10;;;;;;5079717;28;20360;-77
2021/08/04 05:41:18;;;;;;;1.92;0.88;;;14.60;84.00;;;;;;5113276;28;20042;-77
2021/08/04 05:43:45;;;;;;;1.45;0.70;;;14.70;83.90;;;;;;5112860;28;20471;-77
2021/08/04 05:46:12;;;;;;;1.83;1.00;;;14.80;83.70;;;;;;5113162;28;20027;-77
2021/08/04 05:48:39;;;;;;;1.58;0.80;;;14.90;83.60;;;;;;5095055;28;20048;-77
2021/08/04 05:51:06;;;;;;;2.03;0.88;;;15.00;83.40;;;;;;5096321;28;20085;-77
2021/08/04 05:53:33;;;;;;;2.40;0.75;;;15.10;83.30;;;;;;5114393;28;20047;-77
2021/08/04 05:56:00;;;;;;;2.40;1.27;;;15.20;83.20;;;;;;5091952;28;20049;-77
2021/08/04 05:58:27;;;;;;;3.85;1.30;;;15.30;83.10;;;;;;5113152;28;20040;-77
2021/08/04 06:00:54;;;;;;;2.92;1.33;;;15.40;83.00;;;;;;5110448;28;20043;-77
2021/08/04 06:03:21;;;;;;;3.00;1.30;;;15.50;82.80;;;;;;5112959;28;20055;-77
2021/08/04 06:05:49;;;;;;;2.63;1.33;;;15.60;82.70;;;;;;5110141;28;20487;-77
2021/08/04 06:08:15;;;;;;;2.33;1.00;;;15.60;82.60;;;;;;5121631;27;20040;-77
2021/08/04 06:10:43;;;;;;;3.80;1.33;;;15.70;82.50;;;;;;5099395;28;20523;-77
2021/08/04 06:13:09;;;;;;;2.97;1.30;;;15.80;82.30;;;;;;5094710;28;20138;-77
2021/08/04 06:15:48;;;;;;;3.25;1.33;;;15.90;82.20;;;;;;5112765;28;20044;-77
2021/08/04 06:18:15;;;;;;;1.88;1.00;;;16.00;82.10;;;;;;5093761;28;20031;-77
2021/08/04 06:20:43;;;;;;;1.98;0.90;;;16.20;82.00;;;;;;5114900;28;20047;-77
2021/08/04 06:23:10;;;;;;;2.60;1.13;;;16.20;81.80;;;;;;5118648;28;20509;-77
2021/08/04 06:25:37;;;;;;;1.92;1.00;;;16.30;81.70;;;;;;5113019;28;20114;-77
2021/08/04 06:28:04;;;;;;;1.45;0.65;;;16.40;81.60;;;;;;5111047;28;20039;-77
2021/08/04 06:30:31;;;;;;;2.63;0.70;;;16.60;81.50;;;;;;5111379;27;20091;-77
2021/08/04 06:32:58;;;;;;;2.22;0.65;;;16.60;81.40;;;;;;5095398;28;20044;-77
2021/08/04 06:35:25;;;;;;;2.33;1.05;;;16.70;81.20;;;;;;5095448;27;20089;-78
2021/08/04 06:37:52;;;;;;;1.83;0.70;;;16.80;81.70;;;;;;5109558;28;20039;-77
2021/08/04 06:40:19;;;;;;;1.75;0.50;;;16.90;81.00;;;;;;5078569;28;20055;-77
2021/08/04 06:42:46;;;;;;;1.85;0.75;;;17.00;81.50;;;;;;5105745;28;20027;-77
2021/08/04 06:45:13;;;;;;;2.03;1.00;;;17.10;80.80;;;;;;5080510;28;20059;-77
2021/08/04 06:47:40;;;;;;;1.70;0.80;;;17.20;80.70;;;;;;5092997;28;20126;-77
2021/08/04 06:50:08;;;;;;;1.50;0.70;;;17.30;80.60;;;;;;5094888;28;20092;-77
2021/08/04 06:52:35;;;;;;;2.40;0.93;;;17.30;81.10;;;;;;5110551;28;20039;-77
2021/08/04 06:55:03;;;;;;;1.95;0.90;;;17.40;80.40;;;;;;5106390;28;20051;-77
2021/08/04 06:57:29;;;;;;;2.08;0.80;;;17.40;80.40;;;;;;5109280;28;20491;-77
2021/08/04 06:59:56;;;;;;;1.73;0.60;;;17.30;80.40;;;;;;5092274;28;20039;-77
2021/08/04 07:02:23;;;;;;;2.38;0.82;;;17.30;80.60;;;;;;5111622;28;20035;-77
2021/08/04 07:04:50;;;;;;;1.75;0.65;;;17.40;80.60;;;;;;5099234;28;20047;-77
2021/08/04 07:07:17;;;;;;;1.48;0.70;;;17.50;80.50;;;;;;5101054;28;20480;-77
2021/08/04 07:09:45;;;;;;;2.22;1.10;;;17.60;80.30;;;;;;5101423;28;20436;-77
2021/08/04 07:12:12;;;;;;;2.58;0.90;;;17.70;80.10;;;;;;5105304;28;20067;-77
2021/08/04 07:14:39;;;;;;;1.40;0.77;;;17.80;80.00;;;;;;5101961;28;20115;-77
2021/08/04 07:17:06;;;;;;;1.40;0.77;;;17.90;79.80;;;;;;5101686;28;20059;-77
2021/08/04 07:19:34;;;;;;;2.67;0.70;;;18.00;79.60;;;;;;5084014;28;20043;-77
2021/08/04 07:22:01;;;;;;;2.97;1.00;;;18.10;79.40;;;;;;5095032;28;20044;-77
2021/08/04 07:24:28;;;;;;;1.67;0.80;;;18.20;79.30;;;;;;5077840;28;20039;-78
2021/08/04 07:26:55;;;;;;;1.70;0.90;;;18.30;79.20;;;;;;5111488;28;20038;-78
2021/08/04 07:29:22;;;;;;;1.67;0.70;;;18.40;79.20;;;;;;5078216;28;20202;-77
2021/08/04 07:31:50;;;;;;;3.75;1.17;;;18.50;79.00;;;;;;5096146;28;20044;-77
2021/08/04 07:34:21;;;;;;;1.50;0.90;;;18.50;78.80;;;;;;5092440;28;20445;-77
2021/08/04 07:36:49;;;;;;;1.92;0.80;;;18.60;79.30;;;;;;5086597;28;20047;-77
2021/08/04 07:39:16;;;;;;;2.28;0.80;;;18.70;78.70;;;;;;5106953;28;20119;-77
2021/08/04 07:41:44;;;;;;;1.05;0.50;;;18.70;78.50;;;;;;5094730;28;20036;-78
2021/08/04 07:44:12;;;;;;;1.95;0.95;;;18.80;78.40;;;;;;5111163;28;20122;-77
2021/08/04 07:46:52;;;;;;;1.75;0.98;;;18.90;78.40;;;;;;5112371;28;20117;-77
2021/08/04 07:49:19;;;;;;;2.25;1.13;;;19.00;78.30;;;;;;5108853;28;20043;-78
2021/08/04 07:51:46;;;;;;;1.42;0.60;;;19.10;78.10;;;;;;5102769;28;20047;-77
2021/08/04 07:54:13;;;;;;;1.60;0.82;;;19.10;78.00;;;;;;5095882;28;20044;-77
2021/08/04 07:56:40;;;;;;;2.35;0.50;;;19.20;77.90;;;;;;5077925;28;20150;-78
2021/08/04 07:59:07;;;;;;;1.73;0.88;;;19.30;78.40;;;;;;5060944;28;20082;-78
2021/08/04 08:01:38;;;;;;;1.00;0.50;;;19.40;77.70;;;;;;5090842;28;20032;-78
2021/08/04 08:04:05;;;;;;;2.40;1.02;;;19.40;77.50;;;;;;5101131;28;20087;-78
2021/08/04 08:06:32;;;;;;;3.17;1.67;;;19.50;77.40;;;;;;5089014;28;20064;-78
2021/08/04 08:08:59;;;;;;;3.15;1.60;;;19.60;76.90;;;;;;5094730;28;20051;-78
2021/08/04 08:11:26;;;;;;;3.50;1.60;;;19.60;76.70;;;;;;5075377;28;20036;-77
2021/08/04 08:13:53;;;;;;;3.92;1.45;;;19.60;76.70;;;;;;5115499;28;20183;-77
2021/08/04 08:16:20;;;;;;;1.63;0.70;;;19.70;76.80;;;;;;5119587;27;20484;-77
2021/08/04 08:18:48;;;;;;;1.27;0.80;;;19.80;76.70;;;;;;5114383;28;20119;-77
2021/08/04 08:21:15;;;;;;;1.60;0.85;;;19.90;76.50;;;;;;5097869;28;20503;-78
2021/08/04 08:23:42;;;;;;;1.17;0.60;;;20.00;76.40;;;;;;5115185;28;20050;-77
2021/08/04 08:26:09;;;;;;;3.67;1.30;;;20.10;76.30;;;;;;5113419;28;20044;-78
2021/08/04 08:28:36;;;;;;;1.25;0.60;;;20.10;76.10;;;;;;5112072;28;20813;-78
2021/08/04 08:31:03;;;;;;;2.83;1.00;;;20.20;76.00;;;;;;5114835;28;20060;-78
2021/08/04 08:33:30;;;;;;;2.97;1.25;;;20.30;75.90;;;;;;5080667;28;20407;-78
2021/08/04 08:35:57;;;;;;;3.20;1.38;;;20.40;75.80;;;;;;5115942;28;20050;-78
2021/08/04 08:38:24;;;;;;;1.75;0.80;;;20.40;75.50;;;;;;5114426;28;20043;-78
2021/08/04 08:40:51;;;;;;;1.60;0.68;;;20.50;75.50;;;;;;5114919;28;20035;-78
2021/08/04 08:43:21;;;;;;;1.38;0.77;;;20.60;75.30;;;;;;5110198;27;20046;-77
2021/08/04 08:45:50;;;;;;;1.58;0.73;;;20.80;75.10;;;;;;5115993;27;20088;-77
2021/08/04 08:48:18;;;;;;;1.65;0.77;;;20.80;74.90;;;;;;5111756;28;20070;-78
2021/08/04 08:50:48;;;;;;;1.10;0.50;;;20.90;74.80;;;;;;5094819;28;20088;-78
2021/08/04 08:53:15;;;;;;;1.60;0.47;;;21.10;74.60;;;;;;5120225;27;20048;-78
2021/08/04 08:55:42;;;;;;;1.42;0.63;;;21.20;74.40;;;;;;5114080;28;20051;-78
2021/08/04 08:58:10;;;;;;;1.05;0.52;;;21.30;74.20;;;;;;5102351;27;20069;-78
2021/08/04 09:00:37;;;;;;;1.10;0.60;;;21.40;73.90;;;;;;5085370;28;20467;-78
2021/08/04 09:03:04;;;;;;;2.83;0.77;;;21.40;73.70;;;;;;5117021;27;20117;-78
2021/08/04 09:05:48;;;;;;;1.77;0.77;;;21.50;73.50;;;;;;5127709;27;20042;-78
2021/08/04 09:08:26;;;;;;;0.85;0.40;;;21.60;73.20;;;;;;5107612;28;20042;-78
2021/08/04 09:10:55;;;;;;;1.58;0.60;;;21.60;73.10;;;;;;5106999;28;20093;-79
2021/08/04 09:13:33;;;;;;;1.02;0.55;;;21.70;73.10;;;;;;5104183;28;20031;-78
2021/08/04 09:16:13;;;;;;;2.03;0.50;;;21.80;72.80;;;;;;5091542;28;20046;-78
2021/08/04 09:18:41;;;;;;;0.75;0.40;;;21.90;72.50;;;;;;5108149;28;20046;-79
2021/08/04 09:21:09;;;;;;;1.02;0.60;;;22.00;72.20;;;;;;5094277;28;20134;-78
2021/08/04 09:23:48;;;;;;;2.55;0.38;;;22.20;71.90;;;;;;5108305;28;20040;-78
2021/08/04 09:26:20;;;;;;;1.10;0.52;;;22.30;71.00;;;;;;5094176;28;20039;-79
2021/08/04 09:28:55;;;;;;;1.83;0.70;;;22.30;70.50;;;;;;5121835;27;20101;-78
2021/08/04 09:31:45;;;;;;;2.83;0.70;;;22.30;70.00;;;;;;5117114;27;20039;-78
2021/08/04 09:34:34;;;;;;;2.03;0.70;;;22.20;69.30;;;;;;5095088;28;20048;-77
2021/08/04 09:37:11;;;;;;;1.25;0.60;;;22.00;69.50;;;;;;5095508;28;20067;-79
2021/08/04 09:39:57;;;;;;;1.10;0.50;;;22.10;69.50;;;;;;5096037;28;20043;-78
2021/08/04 09:42:52;;;;;;;2.17;0.60;;;22.10;69.30;;;;;;5114674;27;20035;-78
2021/08/04 09:45:47;;;;;;;1.65;0.52;;;22.20;69.10;;;;;;5111793;28;20046;-78
2021/08/04 09:48:18;;;;;;;1.25;0.65;;;22.20;68.90;;;;;;5091882;28;20491;-79
2021/08/04 09:50:53;;;;;;;0.70;0.40;;;22.30;68.70;;;;;;5108611;28;20036;-78
2021/08/04 09:53:40;;;;;;;0.85;0.40;;;22.50;68.50;;;;;;5087954;28;20126;-78
2021/08/04 09:56:16;;;;;;;1.80;0.70;;;22.60;67.90;;;;;;5106320;27;20556;-82
2021/08/04 09:58:50;;;;;;;1.58;0.82;;;22.70;67.50;;;;;;5106834;28;20376;-83
2021/08/04 10:01:21;;;;;;;2.05;0.60;;;22.70;66.60;;;;;;5110004;27;20432;-84
2021/08/04 10:03:59;;;;;;;1.30;0.93;;;22.70;66.70;;;;;;5103813;28;20101;-84
2021/08/04 10:06:39;;;;;;;1.38;0.60;;;22.80;66.50;;;;;;5108214;27;20113;-83
2021/08/04 10:09:09;;;;;;;1.83;0.50;;;22.80;65.90;;;;;;5084271;28;20047;-78
2021/08/04 10:11:43;;;;;;;1.35;0.55;;;22.80;66.00;;;;;;5115259;27;20055;-79
2021/08/04 10:14:15;;;;;;;0.70;0.40;;;22.90;65.90;;;;;;5105691;27;20051;-83
2021/08/04 10:16:43;;;;;;;;;;;23.00;65.80;;;;;;5095848;28;20063;-82
2021/08/04 10:19:11;;;;;;;0.77;0.47;;;23.10;65.90;;;;;;5094106;28;19927;-84
2021/08/04 10:21:42;;;;;;;1.27;0.45;;;23.10;65.50;;;;;;5107605;28;20048;-80
2021/08/04 10:24:11;;;;;;;0.90;0.40;;;23.30;65.10;;;;;;5111085;28;20032;-82
2021/08/04 10:26:39;;;;;;;1.45;0.20;;;23.40;64.90;;;;;;5095160;28;20126;-81
2021/08/04 10:29:08;;;;;;;0.73;0.25;;;23.40;64.70;;;;;;5112179;28;20050;-83
2021/08/04 10:31:37;;;;;;;0.77;0.30;;;23.50;64.40;;;;;;5093174;27;20051;-81
2021/08/04 10:34:07;;;;;;;0.50;0.30;;;23.60;64.10;;;;;;5087615;28;20609;-78
2021/08/04 10:36:38;;;;;;;1.52;0.30;;;23.60;64.00;;;;;;5092489;28;20035;-78
2021/08/04 10:39:13;;;;;;;0.55;0.30;;;23.70;63.90;;;;;;5112053;27;20048;-81
2021/08/04 10:41:58;;;;;;;1.40;0.47;;;23.80;63.60;;;;;;5101194;28;20394;-79
2021/08/04 10:44:25;;;;;;;0.68;0.30;;;23.80;63.40;;;;;;5111943;27;20027;-78
2021/08/04 10:46:54;;;;;;;1.08;0.45;;;23.80;63.30;;;;;;5090672;28;20131;-76
2021/08/04 10:49:25;;;;;;;1.20;0.52;;;23.90;63.10;;;;;;5105034;28;20044;-79
2021/08/04 10:51:54;;;;;;;1.40;0.60;;;24.00;62.40;;;;;;5093976;28;20134;-81
2021/08/04 10:54:23;;;;;;;1.13;0.47;;;24.10;62.30;;;;;;5110857;28;20035;-80
2021/08/04 10:57:09;;;;;;;0.85;0.40;;;24.10;61.90;;;;;;5111767;28;20051;-84
2021/08/04 10:59:36;;;;;;;0.73;0.35;;;24.20;62.00;;;;;;5107122;28;20044;-84
2021/08/04 11:02:03;;;;;;;1.33;0.45;;;24.30;61.70;;;;;;5105924;28;20142;-83
2021/08/04 11:04:33;;;;;;;1.30;0.55;;;24.40;61.50;;;;;;5092053;28;20035;-87
2021/08/04 11:07:07;;;;;;;1.27;0.52;;;24.40;61.40;;;;;;5099137;28;20059;-87
2021/08/04 11:09:56;;;;;;;1.02;0.55;;;24.60;61.10;;;;;;5107364;28;20050;-89
2021/08/04 11:12:44;;;;;;;1.55;0.60;;;24.80;60.60;;;;;;5090883;28;20052;-81
2021/08/04 11:15:21;;;;;;;2.10;0.63;;;24.90;60.10;;;;;;5108832;28;20040;-81
2021/08/04 11:18:09;;;;;;;1.17;0.50;;;25.10;60.00;;;;;;5094435;28;20129;-80
2021/08/04 11:20:40;;;;;;;1.30;0.52;;;25.30;59.60;;;;;;5104162;28;20036;-80
2021/08/04 11:23:08;;;;;;;1.00;0.50;;;25.50;59.40;;;;;;5111358;28;20044;-86
2021/08/04 11:25:41;;;;;;;0.68;0.40;;;25.80;58.90;;;;;;5079964;28;20159;-88
2021/08/04 11:28:10;;;;;;;1.63;0.40;;;26.10;58.60;;;;;;5103128;28;20492;-85
2021/08/04 11:30:45;;;;;;;0.75;0.30;;;26.30;58.30;;;;;;5092919;28;20807;-83
2021/08/04 11:33:22;;;;;;;1.15;0.68;;;26.50;57.80;;;;;;5103310;28;20046;-88
2021/08/04 11:36:08;;;;;;;1.05;0.50;;;26.70;57.30;;;;;;5094220;28;20615;-82
2021/08/04 11:38:55;;;;;;;0.82;0.40;;;26.90;57.10;;;;;;5084565;28;20458;-88
2021/08/04 11:41:43;;;;;;;0.75;0.40;;;27.10;56.70;;;;;;5115671;28;20544;-80
2021/08/04 11:44:18;;;;;;;1.17;0.40;;;27.20;56.60;;;;;;5110708;28;20049;-79
2021/08/04 11:47:00;;;;;;;0.65;0.32;;;27.40;56.40;;;;;;5109974;28;20040;-85
2021/08/04 11:50:04;;;;;;;0.70;0.35;;;27.70;55.90;;;;;;5099639;27;20563;-91
2021/08/04 11:52:35;;;;;;;0.88;0.40;;;27.80;55.40;;;;;;5094139;28;20078;-85
2021/08/04 11:55:29;;;;;;;0.82;0.32;;;27.90;55.20;;;;;;5084354;28;20071;-92
2021/08/04 11:57:58;;;;;;;0.85;0.40;;;28.10;55.00;;;;;;5126084;27;20055;-88
2021/08/04 12:00:28;;;;;;;1.42;0.50;;;28.20;54.80;;;;;;5115767;28;20075;-79
2021/08/04 12:02:55;;;;;;;0.85;0.40;;;28.20;54.40;;;;;;5112968;27;20039;-78
2021/08/04 12:05:23;;;;;;;2.20;0.70;;;28.20;54.60;;;;;;5094933;28;20039;-80
2021/08/04 12:07:50;;;;;;;2.03;0.88;;;28.30;53.50;;;;;;5103006;28;20074;-79
2021/08/04 12:10:22;;;;;;;0.93;0.50;;;28.20;52.70;;;;;;5125019;27;20058;-85
2021/08/04 12:12:52;;;;;;;;;;;28.30;53.20;;;;;;5096539;28;20861;-82
2021/08/04 12:15:24;;;;;;;0.90;0.50;;;28.60;53.40;;;;;;5110375;27;19928;-84
2021/08/04 12:17:59;;;;;;;1.30;0.55;;;28.80;52.90;;;;;;5095016;28;20127;-84
2021/08/04 12:20:29;;;;;;;1.10;0.63;;;28.80;53.10;;;;;;5077364;27;20035;-86
2021/08/04 12:23:09;;;;;;;2.50;0.60;;;29.00;52.60;;;;;;5098083;28;20058;-89
2021/08/04 12:25:41;;;;;;;1.65;0.60;;;29.10;51.90;;;;;;5103950;27;20039;-82
2021/08/04 12:28:09;;;;;;;0.90;0.47;;;29.40;51.80;;;;;;5116649;27;20032;-81
2021/08/04 12:30:44;;;;;;;0.75;0.40;;;29.80;51.60;;;;;;5103008;27;20036;-88
2021/08/04 12:33:18;;;;;;;1.30;0.50;;;30.00;51.10;;;;;;5121657;27;20067;-85
2021/08/04 12:36:10;;;;;;;0.90;0.40;;;30.30;50.90;;;;;;5086010;28;20058;-84
2021/08/04 12:38:53;;;;;;;1.05;0.60;;;30.70;50.80;;;;;;5100638;28;20032;-90
2021/08/04 12:41:21;;;;;;;;;;;31.10;50.40;;;;;;5115796;28;20124;-93
2021/08/04 12:43:54;;;;;;;1.45;0.75;;;30.90;50.70;;;;;;5105735;28;19919;-89
2021/08/04 12:46:26;;;;;;;2.35;0.50;;;30.70;50.20;;;;;;5114669;28;20036;-85
2021/08/04 12:48:54;;;;;;;0.68;0.40;;;30.50;50.30;;;;;;5110482;28;20048;-93
2021/08/04 12:51:23;;;;;;;0.68;0.40;;;30.70;50.30;;;;;;5090796;28;20093;-84
2021/08/04 12:53:58;;;;;;;1.42;0.65;;;30.70;49.90;;;;;;5109439;28;20052;-84
2021/08/04 12:56:48;;;;;;;1.58;0.50;;;29.90;50.30;;;;;;5113207;28;20097;-88
2021/08/04 12:59:16;;;;;;;0.52;0.25;;;29.70;51.00;;;;;;5094449;28;20040;-91
2021/08/04 13:01:47;;;;;;;1.10;0.60;;;29.40;51.30;;;;;;5088385;28;20515;-96
2021/08/04 13:04:15;;;;;;;0.75;0.30;;;28.80;52.00;;;;;;5126421;28;20035;-92